Warning: Javascript must be enabled to use all the features on this page!


Page Loading - Please Wait...

Click to hideNews Bulletins

Peak Streamflow for the Nation

USGS 01414500 MILL BROOK NEAR DUNRAVEN NY

Delaware County, New York
Hydrologic Unit Code 02040102
Latitude  42°06'22", Longitude  74°43'50" NAD83
Drainage area 25.2  square miles
Contributing drainage area 25.2  square miles
Gage datum 1,297.18 feet above NAVD88
Output formats
Table
Graph
Tab-separated file
peakfq (watstore) format
Reselect output format
Water
Year
Date Gage
Height
(feet)
Stream-
flow
(cfs)
1937 1937-05-15 5.003 1,550
1938 1938-09-21 7.603 4,500
1939 1938-12-06 5.903 2,550
1940 1940-03-31 5.116 875
1941 1941-04-14 5.642 580
1942 1942-09-27 9.13 2,880
1943 1942-12-30 7.88 1,870
1944 1943-11-09 7.12 1,550
1945 1945-07-15 6.892 1,390
1946 1946-03-09 6.66 1,210
1947 1947-04-05 5.96 840
1948 1948-03-22 8.36 2,540
1949 1948-12-30 8.22 2,430
1950 1950-04-05 5.662 646
1951 1950-11-25 9.92 3,820
1952 1951-11-07 8.34 2,520
1953 1952-12-11 9.00 3,050
1954 1953-12-07 6.20 1,030
1955 1955-08-19 7.00 1,5509
1956 1955-10-15 6.76 1,390
1957 1957-01-23 5.73 761
1958 1957-12-20 9.44 3,400
1959 1959-01-22 7.402 1,880
1960 1959-11-28 8.67 2,790
1961 1961-02-25 6.82 1,480
1962 1962-03-31 7.36 1,850
1963 1963-03-27 6.79 1,460
1964 1964-01-25 6.94 1,560
1965 1965-02-08 5.782 839
1966 1966-03-24 5.20 505
1967 1967-04-02 5.36 593
1968 1968-04-24 6.032 988
1969 1969-07-28 7.01 1,610
1970 1970-04-03 5.90 910
1971 1970-10-23 7.21 1,750
1972 1972-04-20 5.86 886
1973 1973-06-29 6.54 1,300
1974 1973-12-21   2,0002
1975 1974-12-08   1,3002
1976 1976-01-26 5.151 1,0002
1977 1977-03-13 4.672 1,430
1978 1978-01-09 4.522 1,270
1979 1979-03-06 6.021,2 780
1980 1980-03-21 9.00 3,080
1981 1981-02-02 7.00 1,400
1982 1982-04-18 6.23 958
1983 1983-02-03 5.90 789
1984 1984-05-29 7.50 1,770
1985 1985-09-27 6.69 1,220
1986 1986-03-15 8.78 2,500
1987 1987-04-04 9.74 2,550
1988 1988-03-26 6.76 843
1989 1989-05-06 6.74 834
1990 1989-10-20 7.79 1,360
1991 1990-11-10 8.65 1,840
1992 1991-11-22 7.78 1,350
1993 1993-04-11 7.80 1,380
1994 1994-04-13 7.442 1,190
1995 1995-03-08 5.89 520
1996 1996-01-19 12.56 5,380
1997 1996-11-09 11.09 3,850
1998 1998-03-09 7.31 1,080
1999 1999-09-16 9.79 2,7109
2000 2000-02-28 6.62 770
2001 2000-12-17 11.36 4,110
2002 2002-06-07 5.86 485
2003 2003-09-04 8.25 1,610
2004 2004-09-18 10.24 3,080
2005 2005-04-02 9.67 2,640
2006 2006-06-28 9.01 2,150
2007 2007-06-19 5.162 1,230
2008 2008-07-23 7.97 2,2002
2009 2008-12-12 5.272 1,300
2010 2010-03-23 5.39 1,370
2011 2011-08-28 10.26 4,1109
2012 2012-09-18 5.90 1,480
2013 2013-03-12 5.30 1,040
2014 2014-07-13 5.192 950
2015 2015-04-10 4.462 467
2016 2016-02-25 5.372 1,080
2017 2017-05-02 5.812 1,320
2018 2018-07-25 8.41 2,860
2019 2019-04-15 6.57 1,760
2020 2019-11-01 5.86 1,330
2021 2020-12-25 7.36 2,230
?
  Peak Gage-Height Qualification Codes.
?
  Peak Streamflow Qualification Codes.